Tiempo atmosférico en la estación meteorológica de Doña Mencia, Córdoba (650 m.)



Fecha
DESCASC
Temp. máxima en grados centígrados (hora)
DESCASC
Temp. mínima en grados centígrados (hora)
DESCASC
Temp. media en grados centígrados
DESCASC
Racha de viento máxima en m/sg (hora)
DESCASC
Velocidad máxima media en intervalos de 10 minutos(hora)
DESCASC
Precipitaciones diarias en mm
DESCASC
Precipitaciones de 00:00 a 06:00 en mm
DESCASC
Precipitaciones de 06:00 a 12:00 en mm
DESCASC
Precipitaciones de 12:00 a 18:00 en mm
DESCASC
Precipitaciones de 18:00 a 24:00 en mm
DESCASC
25-04-2019 14.9 (18:30) 9.1 (10:20) 12 18.06 (01:10) 10.28 (03:20) 17.4 4.5 12.7 0.1 0.1
24-04-2019 15.2 (13:40) 7.7 (05:00) 11.4 16.11 (17:50) 8.61 (17:50) 0.1 0 0.1 0 0
23-04-2019 13.3 (00:00) 7.7 (17:30) 10.5 15 (17:10) 8.33 (15:30) 6.9 0.1 6.7 0.1 0
22-04-2019 19 (17:40) 9 (00:00) 14 12.78 (20:30) 7.5 (21:10) 0 0 0 0 0
21-04-2019 12.9 (14:00) 9.1 (00:00) 11 9.17 (08:10) 5.28 (07:40) 0.1 0 0 0.1 0
20-04-2019 16.9 (14:40) 8.5 (00:00) 12.7 10.83 (14:40) 4.72 (15:20) 1 0 0.4 0.6 0
19-04-2019 16.7 (19:00) 8.5 (00:00) 12.6 5.28 (22:10) 3.33 (22:10) 0.3 0.1 0 0 0.2
18-04-2019 14.4 (13:10) 8.7 (00:00) 11.5 10.83 (19:50) 5.83 (14:10) 3.5 0.7 0.8 0.4 1.6
17-04-2019 21.8 (12:50) 12.1 (00:00) 16.9 13.33 (19:00) 7.78 (21:20) 0 0 0 0 0
16-04-2019 24.9 (17:50) 10.4 (00:00) 17.6 8.61 (00:10) 5 (21:20) 0 0 0 0 0
15-04-2019 24 (15:40) 14 (00:00) 19 14.72 (18:20) 8.33 (18:20) 0 0 0 0 0
14-04-2019 23.5 (17:30) 12.4 (00:00) 17.9 7.22 (00:20) 3.89 (00:20) 0 0 0 0 0
13-04-2019 20.7 (18:10) 11 (00:00) 15.9 12.5 (13:20) 3.61 (15:30) 0 0 0 0 0
12-04-2019 19.1 (17:30) 8.4 (00:00) 13.8 9.17 (14:00) 3.33 (01:20) 0 0 0 0 0
11-04-2019 17.9 (18:30) 7.3 (00:00) 12.6 6.39 (16:00) 3.06 (23:50) 0 0 0 0 0
10-04-2019 14.7 (18:20) 7.1 (00:00) 10.9 9.17 (00:40) 5.56 (00:10) 0 0 0 0 0
09-04-2019 13.7 (18:50) 6.7 (00:00) 10.2 12.5 (15:50) 7.78 (18:50) 1.6 0.9 0 0.7 0
08-04-2019 13.6 (14:40) 10.1 (00:00) 11.9 14.17 (18:30) 7.78 (06:30) 14.6 1.3 0.8 7.4 5.1
07-04-2019 12.1 (23:00) 6.2 (00:00) 9.2 13.61 (23:00) 7.5 (23:20) 10.1 0.1 0.1 0.8 9.1
06-04-2019 11 (14:40) 5 (00:00) 8 15.28 (15:50) 8.33 (18:10) 7.6 0.1 1.3 1.5 4.7
05-04-2019 10.5 (16:20) 6.1 (00:00) 8.3 16.39 (11:10) 8.89 (18:10) 12 0 9.5 2 0.5
04-04-2019 15.6 (16:40) 6.5 (00:00) 11.1 11.11 (17:30) 6.67 (17:20) 0 0 0 0 0
03-04-2019 19.1 (16:40) 11.6 (00:00) 15.4 12.22 (17:50) 7.5 (18:10) 0 0 0 0 0
02-04-2019 -- (--) -- (--) -- -- (--) -- (--) -- -- -- -- 0
01-04-2019 -- (--) -- (--) -- -- (--) -- (--) -- -- -- -- --
31-03-2019 -- (--) -- (--) -- -- (--) -- (--) -- -- -- -- --
30-03-2019 -- (--) -- (--) -- -- (--) -- (--) -- 0 0 0 --
29-03-2019 20.1 (17:50) 8 (00:00) 14.1 9.17 (01:20) 5.83 (01:20) 0 0 0 0 0
28-03-2019 21.3 (17:50) 7.3 (00:00) 14.3 13.06 (22:50) 7.5 (22:20) 0 0 0 0 0
27-03-2019 21 (17:30) 9.3 (00:00) 15.2 14.17 (00:20) 6.39 (00:20) 0 0 0 0 0

Gráficas

Temp. máximas Temp. mínimas Temp. medias Precipitaciones Rachas de viento máximas Velocidades máximas media en intervalos de 10 minutos

Datos horarios

Fecha y hora oficial Temperatura (ºC) Velocidad del viento (km/h) Dirección del viento Racha (km/h) Dirección de racha Precipitación (mm) Presión (hPa) Tendencia (hPa) Humedad (%)
2019-04-25 23:00:00 11.2 14 Oeste 32 Oeste 0 -- -- 89
2019-04-25 22:00:00 12 17 Oeste 29 Oeste 0 -- -- 87
2019-04-25 21:00:00 12.3 14 Oeste 29 Oeste 0 -- -- 83
2019-04-25 20:00:00 12.8 18 Oeste 36 Noroeste 0.1 -- -- 86
2019-04-25 19:00:00 13.8 19 Oeste 33 Oeste 0 -- -- 70
2019-04-25 18:00:00 14.3 18 Oeste 35 Oeste 0 -- -- 75
2019-04-25 17:00:00 13.1 18 Oeste 40 Oeste 0 -- -- 70
2019-04-25 16:00:00 13.9 16 Oeste 35 Oeste 0 -- -- 73
2019-04-25 15:00:00 11.5 16 Oeste 29 Oeste 0.1 -- -- 92
2019-04-25 14:00:00 11.3 15 Noroeste 33 Oeste 0 -- -- 86
2019-04-25 13:00:00 11.5 15 Oeste 28 Oeste 0 -- -- 84
2019-04-25 12:00:00 10.1 19 Oeste 40 Oeste 0 -- -- 99
2019-04-25 11:00:00 10.4 23 Oeste 42 Oeste 0.2 -- -- 99
2019-04-25 10:00:00 9.5 26 Oeste 46 Oeste 1 -- -- 99
2019-04-25 09:00:00 10.6 27 Oeste 48 Oeste 4 -- -- 99
2019-04-25 08:00:00 11.6 22 Oeste 51 Oeste 3.2 -- -- 99
2019-04-25 07:00:00 11.9 23 Oeste 48 Oeste 4.3 -- -- 99
2019-04-25 06:00:00 11.7 27 Oeste 53 Oeste 2.1 -- -- 99
2019-04-25 05:00:00 12.3 27 Oeste 62 Oeste 1.4 -- -- 99
2019-04-25 04:00:00 12.5 33 Oeste 63 Oeste 0.2 -- -- 98
2019-04-25 03:00:00 12.5 32 Oeste 64 Oeste 0.2 -- -- 96
2019-04-25 02:00:00 12.5 26 Oeste 65 Oeste 0.5 -- -- 95
2019-04-25 01:00:00 12.7 28 Oeste 57 Sudoeste 0.1 -- -- 85
2019-04-25 00:00:00 13.2 24 Sudoeste 54 Sudoeste 0 -- -- 74
2019-04-24 23:00:00 13 26 Sudoeste 56 Sudoeste 0 -- -- 72
2019-04-24 22:00:00 13.2 22 Oeste 54 Oeste 0 -- -- 70
2019-04-24 21:00:00 13.4 28 Oeste 48 Sudoeste 0 -- -- 71
2019-04-24 20:00:00 13.9 20 Sudoeste 49 Oeste 0 -- -- 65
2019-04-24 19:00:00 14 25 Oeste 49 Oeste 0 -- -- 65
2019-04-24 18:00:00 14.4 25 Oeste 58 Oeste 0 -- -- 63
2019-04-24 17:00:00 14.2 21 Sudoeste 47 Sur 0 -- -- 63
2019-04-24 16:00:00 14.1 22 Sudoeste 54 Sudoeste 0 -- -- 62
2019-04-24 15:00:00 13.1 19 Sudoeste 42 Sudoeste 0 -- -- 63
2019-04-24 14:00:00 13.4 20 Sudoeste 46 Oeste 0 -- -- 59
2019-04-24 13:00:00 13.7 22 Sudoeste 56 Oeste 0 -- -- 57
2019-04-24 12:00:00 13.1 28 Oeste 48 Oeste 0 -- -- 59
2019-04-24 11:00:00 12.1 25 Oeste 51 Sudoeste 0 -- -- 64
2019-04-24 10:00:00 10.7 21 Oeste 57 Oeste 0 -- -- 74
2019-04-24 09:00:00 9.5 25 Oeste 48 Oeste 0 -- -- 81
2019-04-24 08:00:00 8.6 19 Oeste 42 Sudoeste 0.1 -- -- 90
2019-04-24 07:00:00 8.7 19 Oeste 38 Oeste 0 -- -- 84
2019-04-24 06:00:00 7.9 17 Oeste 31 Sudoeste 0 -- -- 92
2019-04-24 05:00:00 7.8 14 Oeste 33 Oeste 0 -- -- 96
2019-04-24 04:00:00 8 21 Oeste 39 Oeste 0 -- -- 97
2019-04-24 03:00:00 8.3 21 Oeste 39 Oeste 0 -- -- 94
2019-04-24 02:00:00 8.4 19 Oeste 37 Oeste 0 -- -- 91
2019-04-24 01:00:00 8.6 23 Oeste 45 Oeste 0 -- -- 84
2019-04-24 00:00:00 8.9 23 Oeste 40 Oeste 0 -- -- 81
2019-04-23 23:00:00 9.1 21 Oeste 40 Oeste 0 -- -- 75
2019-04-23 22:00:00 9.3 22 Oeste 42 Oeste 0 -- -- 65
2019-04-23 21:00:00 10.1 23 Oeste 50 Noroeste 0 -- -- 62
2019-04-23 20:00:00 10.5 25 Oeste 46 Oeste 0 -- -- 61
2019-04-23 19:00:00 10.7 19 Oeste 37 Sudoeste 0 -- -- 64
2019-04-23 18:00:00 10.8 24 Oeste 54 Oeste 0.1 -- -- 63
2019-04-23 17:00:00 10.6 24 Oeste 40 Oeste 0 -- -- 57
2019-04-23 16:00:00 11.6 24 Oeste 50 Oeste 0 -- -- 57
2019-04-23 15:00:00 11.6 21 Oeste 40 Oeste 0 -- -- 57
2019-04-23 14:00:00 11.4 18 Oeste 33 Oeste 0 -- -- 58
2019-04-23 13:00:00 10.7 20 Oeste 36 Oeste 0 -- -- 74
2019-04-23 12:00:00 8.6 20 Oeste 37 Oeste 0 -- -- 99
2019-04-23 11:00:00 8.4 22 Oeste 49 Oeste 1.1 -- -- 99
2019-04-23 10:00:00 9.4 27 Oeste 42 Oeste 1.8 -- -- 99
2019-04-23 09:00:00 9.5 19 Oeste 38 Oeste 3.4 -- -- 99
2019-04-23 08:00:00 11.3 24 Oeste 47 Oeste 0.4 -- -- 83
2019-04-23 07:00:00 12.3 18 Sudoeste 36 Sudoeste 0 -- -- 78
2019-04-23 06:00:00 11.9 17 Oeste 41 Oeste 0 -- -- 86
2019-04-23 05:00:00 11.7 22 Oeste 44 Oeste 0.1 -- -- 87
2019-04-23 04:00:00 12.1 26 Oeste 48 Oeste 0 -- -- 84
2019-04-23 03:00:00 11.8 26 Oeste 44 Oeste 0 -- -- 85
2019-04-23 02:00:00 11.9 22 Oeste 37 Oeste 0 -- -- 89
2019-04-23 01:00:00 12.1 20 Oeste 35 Oeste 0 -- -- 87
2019-04-23 00:00:00 13.3 18 Oeste 39 Oeste 0 -- -- 63
2019-04-22 23:00:00 13.8 22 Oeste 42 Oeste 0 -- -- 60
2019-04-22 22:00:00 14.7 19 Oeste 43 Oeste 0 -- -- 51
2019-04-22 21:00:00 15.9 26 Oeste 46 Noroeste 0 -- -- 49
2019-04-22 20:00:00 17.3 13 Oeste 26 Oeste 0 -- -- 46
2019-04-22 19:00:00 17.3 16 Oeste 33 Sudoeste 0 -- -- 45
2019-04-22 18:00:00 18.6 19 Oeste 33 Noroeste 0 -- -- 45
2019-04-22 17:00:00 18.4 20 Oeste 33 Oeste 0 -- -- 46
2019-04-22 16:00:00 16.8 13 Noroeste 27 Oeste 0 -- -- 51
2019-04-22 15:00:00 16.7 13 Oeste 30 Oeste 0 -- -- 51
2019-04-22 14:00:00 16 14 Noroeste 25 Noroeste 0 -- -- 53
2019-04-22 13:00:00 14.7 10 Oeste 19 Oeste 0 -- -- 64
2019-04-22 12:00:00 13.6 8 Noroeste 15 Noroeste 0 -- -- 68
2019-04-22 11:00:00 12.3 5 Noroeste 11 Oeste 0 -- -- 74
2019-04-22 10:00:00 11.2 6 Noroeste 12 Noroeste 0 -- -- 79
2019-04-22 09:00:00 9.6 3 Este 9 Sudeste 0 -- -- 93
2019-04-22 08:00:00 9.6 6 Sudeste 11 Sudeste 0 -- -- 92
2019-04-22 07:00:00 9.5 4 Sudeste 12 Sudeste 0 -- -- 92
2019-04-22 06:00:00 9.5 6 Sur 14 Este 0 -- -- 91
2019-04-22 05:00:00 9.4 2 Este 11 Este 0 -- -- 91
2019-04-22 04:00:00 9.3 4 Sur 13 Norte 0 -- -- 89
2019-04-22 03:00:00 9.8 3 Norte 12 Nordeste 0 -- -- 86
2019-04-22 02:00:00 10.2 3 Este 11 Sur 0 -- -- 84
2019-04-22 01:00:00 10.6 2 Este 16 Sudeste 0 -- -- 81
2019-04-22 00:00:00 11 3 Este 16 Nordeste 0 -- -- 79
2019-04-21 23:00:00 11.2 2 Sur 16 Sudeste 0 -- -- 77
2019-04-21 22:00:00 11.4 4 Este 17 Nordeste 0 -- -- 76
2019-04-21 21:00:00 11.8 6 Nordeste 14 Este 0 -- -- 76
2019-04-21 20:00:00 12.2 4 Nordeste 16 Este 0 -- -- 74
2019-04-21 19:00:00 12.7 5 Este 19 Este 0 -- -- 73
2019-04-21 18:00:00 12.6 4 Sudeste 13 Sudeste 0 -- -- 79
2019-04-21 17:00:00 12.4 6 Este 18 Nordeste 0 -- -- 82
2019-04-21 16:00:00 12.1 9 Nordeste 16 Nordeste 0.1 -- -- 82
2019-04-21 15:00:00 12.9 7 Nordeste 17 Nordeste 0 -- -- 76
2019-04-21 14:00:00 12.9 3 Nordeste 11 Este 0 -- -- 80
2019-04-21 13:00:00 12.1 2 Nordeste 10 Este 0 -- -- 84
2019-04-21 12:00:00 11.4 5 Este 21 Sudeste 0 -- -- 89
2019-04-21 11:00:00 10.3 9 Sudeste 23 Este 0 -- -- 96
2019-04-21 10:00:00 9.6 8 Este 21 Sudeste 0 -- -- 98
2019-04-21 09:00:00 9.2 8 Este 33 Sudeste 0 -- -- 94
2019-04-21 08:00:00 9.5 17 Sudeste 31 Este 0 -- -- 86
2019-04-21 07:00:00 9.8 14 Sudeste 28 Sudeste 0 -- -- 82
2019-04-21 06:00:00 10.2 6 Este 24 Sudeste 0 -- -- 80
2019-04-21 05:00:00 10.4 4 Sudeste 21 Sudeste 0 -- -- 81
2019-04-21 04:00:00 10.5 7 Sudeste 24 Sudeste 0 -- -- 81
2019-04-21 03:00:00 10.6 11 Sudeste 23 Sudeste 0 -- -- 81
2019-04-21 02:00:00 10.5 6 Sudeste 17 Sudeste 0 -- -- 81
2019-04-21 01:00:00 11.3 9 Nordeste 18 Este 0 -- -- 80
2019-04-21 00:00:00 11.9 5 Este 15 Nordeste 0 -- -- 79
2019-04-20 23:00:00 12.3 3 Noroeste 19 Nordeste 0 -- -- 80
2019-04-20 22:00:00 12.7 5 Norte 22 Este 0 -- -- 85
2019-04-20 21:00:00 12.8 6 Noroeste 24 Norte 0 -- -- 82
2019-04-20 20:00:00 13.2 5 Norte 34 Nordeste 0 -- -- 80
2019-04-20 19:00:00 13.9 4 Este 31 Este 0 -- -- 78
2019-04-20 18:00:00 14 4 Nordeste 31 Este 0.1 -- -- 80
2019-04-20 17:00:00 13.7 7 Nordeste 33 Nordeste 0.5 -- -- 77
2019-04-20 16:00:00 16.1 14 Nordeste 38 Nordeste 0 -- -- 61
2019-04-20 15:00:00 15.8 16 Nordeste 39 Sur 0 -- -- 61
2019-04-20 14:00:00 14.1 10 Nordeste 28 Nordeste 0 -- -- 75
2019-04-20 13:00:00 13.5 9 Nordeste 23 Nordeste 0 -- -- 80
2019-04-20 12:00:00 11.8 3 Norte 23 Nordeste 0 -- -- 97
2019-04-20 11:00:00 10.5 4 Norte 22 Sudoeste 0 -- -- 99
2019-04-20 10:00:00 9.7 5 Oeste 27 Sudeste 0.2 -- -- 99
2019-04-20 09:00:00 9.4 3 Oeste 24 Nordeste 0.2 -- -- 99
2019-04-20 08:00:00 9.4 4 Oeste 28 Nordeste 0 -- -- 99
2019-04-20 07:00:00 9.1 6 Sur 17 Sur 0 -- -- 98
2019-04-20 06:00:00 9 8 Sudeste 21 Sudeste 0 -- -- 99
2019-04-20 05:00:00 8.9 6 Sudeste 16 Nordeste 0 -- -- 99
2019-04-20 04:00:00 9.4 6 Este 16 Sudeste 0 -- -- 99
2019-04-20 03:00:00 8.9 7 Este 18 Este 0 -- -- 99
2019-04-20 02:00:00 9.5 2 Norte 14 Este 0 -- -- 99
2019-04-20 01:00:00 10.4 6 Sudeste 9 Sudeste 0 -- -- 98
2019-04-20 00:00:00 10.1 4 Norte 12 Sudeste 0 -- -- 93
2019-04-19 23:00:00 10.7 9 Sudeste 19 Nordeste 0.2 -- -- 91
2019-04-19 22:00:00 12.3 8 Nordeste 18 Norte 0 -- -- 79
2019-04-19 21:00:00 13.2 5 Noroeste 12 Nordeste 0 -- -- 63
2019-04-19 20:00:00 15.5 5 Norte 15 Noroeste 0 -- -- 53
2019-04-19 19:00:00 16.7 3 Norte 12 Norte 0 -- -- 55
2019-04-19 18:00:00 14.7 4 Nordeste 11 Nordeste 0 -- -- 59
2019-04-19 17:00:00 14.3 4 Sudeste 17 Sudeste 0 -- -- 66
2019-04-19 16:00:00 13.5 8 Sudeste 17 Sudeste 0 -- -- 68
2019-04-19 15:00:00 14.5 6 Sudoeste 13 Sudoeste 0 -- -- 64
2019-04-19 14:00:00 13.1 7 Noroeste 16 Norte 0 -- -- 70
2019-04-19 13:00:00 12.8 8 Noroeste 17 Oeste 0 -- -- 74
2019-04-19 12:00:00 12.5 6 Noroeste 14 Noroeste 0 -- -- 80
2019-04-19 11:00:00 11 9 Noroeste 15 Noroeste 0 -- -- 84
2019-04-19 10:00:00 11.1 5 Sudeste 12 Sudeste 0 -- -- 90
2019-04-19 09:00:00 9.2 2 Sudeste 10 Este 0 -- -- 94
2019-04-19 08:00:00 8.7 5 Nordeste 11 Este 0 -- -- 91
2019-04-19 07:00:00 8.8 4 Noroeste 8 Noroeste 0 -- -- 92
2019-04-19 06:00:00 8.9 2 Norte 9 Norte 0.1 -- -- 92
2019-04-19 05:00:00 9.2 4 Noroeste 6 Noroeste 0 -- -- 89
2019-04-19 04:00:00 9 3 Noroeste 9 Norte 0 -- -- 91
2019-04-19 03:00:00 9.2 5 Noroeste 16 Noroeste 0 -- -- 89
2019-04-19 02:00:00 9.2 7 Norte 13 Noroeste 0 -- -- 87
2019-04-19 01:00:00 9.3 0 Calma 11 Noroeste 0 -- -- 87
2019-04-19 00:00:00 9 5 Noroeste 10 Noroeste 0 -- -- 90
2019-04-18 23:00:00 9.1 4 Noroeste 10 Noroeste 0 -- -- 92
2019-04-18 22:00:00 9.4 5 Noroeste 13 Noroeste 0.1 -- -- 91
2019-04-18 21:00:00 9 6 Noroeste 26 Oeste 0.7 -- -- 98
2019-04-18 20:00:00 9.1 18 Oeste 39 Oeste 0.8 -- -- 95
2019-04-18 19:00:00 11.8 4 Sudoeste 20 Noroeste 0 -- -- 84
2019-04-18 18:00:00 11.8 12 Norte 19 Noroeste 0 -- -- 81
2019-04-18 17:00:00 12.8 12 Norte 27 Norte 0 -- -- 72
2019-04-18 16:00:00 13.6 13 Oeste 22 Oeste 0 -- -- 76
2019-04-18 15:00:00 11.7 14 Oeste 32 Noroeste 0.3 -- -- 98
2019-04-18 14:00:00 13.5 14 Oeste 31 Oeste 0.1 -- -- 74
2019-04-18 13:00:00 14 4 Noroeste 16 Oeste 0 -- -- 73
2019-04-18 12:00:00 13.1 12 Oeste 22 Oeste 0 -- -- 81
2019-04-18 11:00:00 11.7 8 Noroeste 12 Noroeste 0 -- -- 94
2019-04-18 10:00:00 11 5 Oeste 10 Noroeste 0 -- -- 95
2019-04-18 09:00:00 10.5 3 Oeste 9 Sudeste 0.3 -- -- 97
2019-04-18 08:00:00 10.4 6 Este 10 Este 0.5 -- -- 94
2019-04-18 07:00:00 10.7 5 Oeste 14 Noroeste 0 -- -- 88
2019-04-18 06:00:00 10.8 5 Nordeste 17 Noroeste 0 -- -- 84
2019-04-18 05:00:00 11.1 5 Oeste 36 Noroeste 0.1 -- -- 81
2019-04-18 04:00:00 11.5 10 Noroeste 36 Oeste 0 -- -- 82
2019-04-18 03:00:00 13.6 4 Oeste 21 Sudeste 0.1 -- -- 72
2019-04-18 02:00:00 12.6 6 Este 18 Este 0.2 -- -- 90
2019-04-18 01:00:00 12.3 5 Este 26 Sudoeste 0.3 -- -- 87
2019-04-18 00:00:00 12.4 8 Oeste 21 Sudoeste 0 -- -- 74
2019-04-17 23:00:00 12.2 14 Oeste 31 Oeste 0 -- -- 74
2019-04-17 22:00:00 12.6 15 Oeste 44 Noroeste 0 -- -- 79
2019-04-17 21:00:00 15.7 17 Oeste 38 Oeste 0 -- -- 60
2019-04-17 20:00:00 16.2 25 Oeste 47 Oeste 0 -- -- 57
2019-04-17 19:00:00 16 24 Oeste 48 Oeste 0 -- -- 62
2019-04-17 18:00:00 15.9 22 Oeste 37 Oeste 0 -- -- 63
2019-04-17 17:00:00 16.9 20 Oeste 30 Oeste 0 -- -- 58
2019-04-17 16:00:00 18.3 12 Noroeste 18 Noroeste 0 -- -- 49
2019-04-17 15:00:00 20.3 10 Noroeste 18 Oeste 0 -- -- 40
2019-04-17 14:00:00 19.7 10 Noroeste 18 Noroeste 0 -- -- 41
2019-04-17 13:00:00 21.1 8 Noroeste 17 Noroeste 0 -- -- 37
2019-04-17 12:00:00 20.6 3 Oeste 12 Noroeste 0 -- -- 37
2019-04-17 11:00:00 19 2 Oeste 9 Sudoeste 0 -- -- 41
2019-04-17 10:00:00 18 0 Calma 5 Sudoeste 0 -- -- 40
2019-04-17 09:00:00 16.2 0 Calma 24 Sur 0 -- -- 41
2019-04-17 08:00:00 18.3 6 Sur 29 Sur 0 -- -- 32
2019-04-17 07:00:00 17.8 12 Sudeste 27 Sur 0 -- -- 35
2019-04-17 06:00:00 14.9 0 Calma 13 Noroeste 0 -- -- 43
2019-04-17 05:00:00 14.1 4 Noroeste 27 Sur 0 -- -- 47
2019-04-17 04:00:00 14.8 5 Noroeste 20 Sur 0 -- -- 45
2019-04-17 03:00:00 13.2 4 Norte 12 Norte 0 -- -- 47
2019-04-17 02:00:00 13.4 3 Norte 8 Noroeste 0 -- -- 41
2019-04-17 01:00:00 14.5 5 Noroeste 18 Noroeste 0 -- -- 34
2019-04-17 00:00:00 17.7 3 Noroeste 22 Sur 0 -- -- 30
2019-04-16 23:00:00 19.8 14 Sur 28 Sur 0 -- -- 29
2019-04-16 22:00:00 18.2 4 Norte 28 Sur 0 -- -- 29
2019-04-16 21:00:00 20.4 15 Sur 23 Sur 0 -- -- 24
2019-04-16 20:00:00 22.7 9 Sudoeste 23 Oeste 0 -- -- 22
2019-04-16 19:00:00 24.1 9 Sudoeste 26 Noroeste 0 -- -- 23
2019-04-16 18:00:00 24.6 9 Sudoeste 28 Noroeste 0 -- -- 25
2019-04-16 17:00:00 23.9 10 Oeste 25 Oeste 0 -- -- 32
2019-04-16 16:00:00 22.6 9 Noroeste 21 Oeste 0 -- -- 37
2019-04-16 15:00:00 21.3 3 Noroeste 18 Sudeste 0 -- -- 45
2019-04-16 14:00:00 20.5 7 Este 21 Noroeste 0 -- -- 50
2019-04-16 13:00:00 18.6 0 Calma 21 Oeste 0 -- -- 56
2019-04-16 12:00:00 17.7 5 Nordeste 19 Este 0 -- -- 61
2019-04-16 11:00:00 15.9 3 Nordeste 14 Sudeste 0 -- -- 76
2019-04-16 10:00:00 14.3 5 Este 12 Este 0 -- -- 93
2019-04-16 09:00:00 11.5 6 Nordeste 10 Nordeste 0 -- -- 99
2019-04-16 08:00:00 10.6 3 Noroeste 15 Este 0 -- -- 99
2019-04-16 07:00:00 10.7 11 Este 14 Este 0 -- -- 99
2019-04-16 06:00:00 10.6 8 Este 13 Este 0 -- -- 99
2019-04-16 05:00:00 11.3 3 Noroeste 12 Noroeste 0 -- -- 99
2019-04-16 04:00:00 11.5 5 Noroeste 14 Noroeste 0 -- -- 97
2019-04-16 03:00:00 12.2 6 Noroeste 18 Noroeste 0 -- -- 92
2019-04-16 02:00:00 13 9 Noroeste 17 Noroeste 0 -- -- 89
2019-04-16 01:00:00 13.5 9 Noroeste 31 Oeste 0 -- -- 85
2019-04-16 00:00:00 14 17 Oeste 39 Oeste 0 -- -- 81
2019-04-15 23:00:00 14.6 22 Oeste 48 Oeste 0 -- -- 69
2019-04-15 22:00:00 15.5 19 Oeste 52 Oeste 0 -- -- 60
2019-04-15 21:00:00 17.2 26 Oeste 44 Oeste 0 -- -- 49
2019-04-15 20:00:00 19.3 21 Oeste 44 Noroeste 0 -- -- 38
2019-04-15 19:00:00 21.4 28 Oeste 53 Noroeste 0 -- -- 33
2019-04-15 18:00:00 22.4 27 Oeste 48 Oeste 0 -- -- 31
2019-04-15 17:00:00 23.4 23 Oeste 40 Oeste 0 -- -- 34
2019-04-15 16:00:00 23.2 22 Noroeste 36 Oeste 0 -- -- 37
2019-04-15 15:00:00 23.2 13 Oeste 33 Noroeste 0 -- -- 39
2019-04-15 14:00:00 22.1 14 Oeste 27 Oeste 0 -- -- 42
2019-04-15 13:00:00 20.9 13 Noroeste 25 Oeste 0 -- -- 43
2019-04-15 12:00:00 20.3 16 Oeste 28 Oeste 0 -- -- 45
2019-04-15 11:00:00 19.9 15 Oeste 36 Oeste 0 -- -- 42
2019-04-15 10:00:00 19.6 19 Oeste 38 Oeste 0 -- -- 40
2019-04-15 09:00:00 19 4 Oeste 13 Este 0 -- -- 43
2019-04-15 08:00:00 17.6 7 Este 13 Sudeste 0 -- -- 46
2019-04-15 07:00:00 17.9 4 Sudeste 14 Sudeste 0 -- -- 49
2019-04-15 06:00:00 17.6 5 Sudeste 12 Este 0 -- -- 51
2019-04-15 05:00:00 17.8 5 Este 13 Sudeste 0 -- -- 51
2019-04-15 04:00:00 16.9 8 Este 12 Este 0 -- -- 53
2019-04-15 03:00:00 17.7 3 Sudeste 8 Sudeste 0 -- -- 51
2019-04-15 02:00:00 18.3 0 Calma 8 Sudeste 0 -- -- 48
2019-04-15 01:00:00 17.9 4 Este 8 Este 0 -- -- 50
2019-04-15 00:00:00 18.4 2 Este 5 Este 0 -- -- 51
2019-04-14 23:00:00 19 0 Calma 3 Este 0 -- -- 49
2019-04-14 22:00:00 18.8 0 Calma 4 Norte 0 -- -- 49
2019-04-14 21:00:00 19 2 Este 9 Oeste 0 -- -- 49
2019-04-14 20:00:00 20.6 6 Noroeste 17 Noroeste 0 -- -- 46
2019-04-14 19:00:00 21.1 10 Noroeste 22 Noroeste 0 -- -- 44
2019-04-14 18:00:00 22 13 Noroeste 23 Noroeste 0 -- -- 43
2019-04-14 17:00:00 23 8 Norte 21 Norte 0 -- -- 42
2019-04-14 16:00:00 22.8 10 Noroeste 20 Noroeste 0 -- -- 43
2019-04-14 15:00:00 21.6 8 Norte 23 Noroeste 0 -- -- 46
2019-04-14 14:00:00 20.4 9 Oeste 17 Noroeste 0 -- -- 47
2019-04-14 13:00:00 19.1 9 Noroeste 17 Noroeste 0 -- -- 50
2019-04-14 12:00:00 18.5 7 Oeste 14 Noroeste 0 -- -- 51
2019-04-14 11:00:00 17.2 3 Sudoeste 7 Sudoeste 0 -- -- 51
2019-04-14 10:00:00 15.3 5 Noroeste 8 Noroeste 0 -- -- 54
2019-04-14 09:00:00 13.3 2 Noroeste 9 Este 0 -- -- 56
2019-04-14 08:00:00 12.8 8 Sudeste 9 Este 0 -- -- 58
2019-04-14 07:00:00 13.6 4 Este 7 Este 0 -- -- 55
2019-04-14 06:00:00 13.4 3 Sudeste 7 Norte 0 -- -- 54
2019-04-14 05:00:00 12.9 5 Noroeste 14 Noroeste 0 -- -- 54
2019-04-14 04:00:00 13 8 Noroeste 16 Noroeste 0 -- -- 55
2019-04-14 03:00:00 13.4 10 Noroeste 19 Norte 0 -- -- 56
2019-04-14 02:00:00 13.7 10 Norte 23 Norte 0 -- -- 54
2019-04-14 01:00:00 14.2 10 Noroeste 26 Oeste 0 -- -- 50
2019-04-14 00:00:00 15 9 Noroeste 19 Oeste 0 -- -- 43
2019-04-13 23:00:00 16 7 Noroeste 14 Oeste 0 -- -- 41
2019-04-13 22:00:00 16.4 8 Noroeste 13 Noroeste 0 -- -- 39
2019-04-13 21:00:00 17 7 Noroeste 17 Oeste 0 -- -- 37
2019-04-13 20:00:00 19.8 10 Noroeste 21 Noroeste 0 -- -- 32
2019-04-13 19:00:00 20.4 11 Oeste 23 Oeste 0 -- -- 31
2019-04-13 18:00:00 20.5 13 Noroeste 23 Noroeste 0 -- -- 33
2019-04-13 17:00:00 20.3 8 Noroeste 22 Oeste 0 -- -- 31
2019-04-13 16:00:00 19.5 9 Norte 28 Oeste 0 -- -- 34
2019-04-13 15:00:00 19.1 6 Noroeste 21 Noroeste 0 -- -- 35
2019-04-13 14:00:00 19.1 3 Noroeste 45 Norte 0 -- -- 35
2019-04-13 13:00:00 17.5 7 Noroeste 19 Norte 0 -- -- 36
2019-04-13 12:00:00 17.1 6 Noroeste 14 Noroeste 0 -- -- 46
2019-04-13 11:00:00 15.3 0 Calma 6 Noroeste 0 -- -- 49
2019-04-13 10:00:00 13.7 2 Noroeste 6 Noroeste 0 -- -- 53
2019-04-13 09:00:00 11.9 3 Noroeste 12 Noroeste 0 -- -- 54
2019-04-13 08:00:00 11.4 6 Noroeste 14 Noroeste 0 -- -- 55
2019-04-13 07:00:00 11.6 6 Noroeste 13 Noroeste 0 -- -- 55
2019-04-13 06:00:00 11.2 5 Noroeste 15 Norte 0 -- -- 60
2019-04-13 05:00:00 11.7 5 Norte 13 Noroeste 0 -- -- 58
2019-04-13 04:00:00 11 8 Norte 14 Norte 0 -- -- 60
2019-04-13 03:00:00 12.4 3 Norte 9 Noroeste 0 -- -- 52
2019-04-13 02:00:00 12.5 10 Noroeste 23 Noroeste 0 -- -- 49
2019-04-13 01:00:00 14.2 0 Calma 7 Oeste 0 -- -- 39
2019-04-13 00:00:00 14.3 4 Noroeste 8 Noroeste 0 -- -- 39
2019-04-12 23:00:00 14.5 0 Calma 2 Nordeste 0 -- -- 38
2019-04-12 22:00:00 14.7 0 Calma 3 Nordeste 0 -- -- 38
2019-04-12 21:00:00 15.5 2 Noroeste 10 Noroeste 0 -- -- 36
2019-04-12 20:00:00 18.1 5 Noroeste 15 Oeste 0 -- -- 32
2019-04-12 19:00:00 17.8 8 Noroeste 19 Noroeste 0 -- -- 32
2019-04-12 18:00:00 18.5 10 Noroeste 19 Noroeste 0 -- -- 34
2019-04-12 17:00:00 18.5 11 Noroeste 22 Oeste 0 -- -- 35
2019-04-12 16:00:00 17.7 6 Noroeste 23 Noroeste 0 -- -- 36
2019-04-12 15:00:00 17.1 4 Oeste 24 Noroeste 0 -- -- 36
2019-04-12 14:00:00 17.1 10 Oeste 33 Noroeste 0 -- -- 41
2019-04-12 13:00:00 16 5 Noroeste 18 Noroeste 0 -- -- 52
2019-04-12 12:00:00 14.1 10 Noroeste 19 Noroeste 0 -- -- 61
2019-04-12 11:00:00 15.8 5 Sudeste 12 Este 0 -- -- 49
2019-04-12 10:00:00 13.7 5 Este 13 Este 0 -- -- 58
2019-04-12 09:00:00 10.2 7 Este 12 Este 0 -- -- 68
2019-04-12 08:00:00 8.8 7 Este 10 Este 0 -- -- 74
2019-04-12 07:00:00 9.5 5 Este 13 Este 0 -- -- 69
2019-04-12 06:00:00 9 7 Este 15 Este 0 -- -- 71
2019-04-12 05:00:00 9.9 5 Norte 10 Norte 0 -- -- 71
2019-04-12 04:00:00 10.4 6 Norte 9 Norte 0 -- -- 59
2019-04-12 03:00:00 10.3 7 Norte 10 Noroeste 0 -- -- 58
2019-04-12 02:00:00 11.1 10 Sudeste 14 Sudeste 0 -- -- 56
2019-04-12 01:00:00 11.1 11 Sudeste 13 Sudeste 0 -- -- 56
2019-04-12 00:00:00 11.5 10 Este 17 Este 0 -- -- 55
2019-04-11 23:00:00 13.3 2 Norte 8 Este 0 -- -- 49
2019-04-11 22:00:00 12.2 6 Este 9 Este 0 -- -- 53
2019-04-11 21:00:00 13.2 7 Este 14 Noroeste 0 -- -- 48
2019-04-11 20:00:00 16.9 4 Nordeste 17 Noroeste 0 -- -- 39
2019-04-11 19:00:00 17 5 Este 23 Norte 0 -- -- 38
2019-04-11 18:00:00 17.7 3 Norte 18 Norte 0 -- -- 37
2019-04-11 17:00:00 17 8 Sudeste 19 Sudeste 0 -- -- 40
2019-04-11 16:00:00 16.7 7 Noroeste 23 Oeste 0 -- -- 39
2019-04-11 15:00:00 14.8 3 Nordeste 18 Norte 0 -- -- 45
2019-04-11 14:00:00 15.2 3 Nordeste 19 Este 0 -- -- 51
2019-04-11 13:00:00 14.3 6 Nordeste 15 Norte 0 -- -- 55
2019-04-11 12:00:00 14.1 5 Sudeste 14 Sudeste 0 -- -- 59
2019-04-11 11:00:00 11.7 5 Oeste 12 Noroeste 0 -- -- 75
2019-04-11 10:00:00 9.5 0 Calma 6 Noroeste 0 -- -- 84
2019-04-11 09:00:00 8.2 0 Calma 5 Sudeste 0 -- -- 85
2019-04-11 08:00:00 7.6 2 Norte 8 Norte 0 -- -- 86
2019-04-11 07:00:00 8.6 0 Calma 6 Oeste 0 -- -- 74
2019-04-11 06:00:00 8.6 3 Noroeste 8 Noroeste 0 -- -- 71
2019-04-11 05:00:00 9 0 Calma 8 Noroeste 0 -- -- 68
2019-04-11 04:00:00 9.5 4 Noroeste 7 Noroeste 0 -- -- 63
2019-04-11 03:00:00 10 0 Calma 7 Este 0 -- -- 61
2019-04-11 02:00:00 10.1 0 Calma 9 Norte 0 -- -- 60
2019-04-11 01:00:00 10.7 5 Norte 8 Noroeste 0 -- -- 58
2019-04-11 00:00:00 10.8 0 Calma 8 Noroeste 0 -- -- 57
2019-04-10 23:00:00 11.1 3 Noroeste 8 Noroeste 0 -- -- 57
2019-04-10 22:00:00 11.9 0 Calma 10 Noroeste 0 -- -- 55
2019-04-10 21:00:00 13 2 Oeste 16 Noroeste 0 -- -- 54
2019-04-10 20:00:00 13.6 12 Noroeste 26 Noroeste 0 -- -- 54
2019-04-10 19:00:00 13.6 16 Oeste 28 Noroeste 0 -- -- 52
2019-04-10 18:00:00 14.1 18 Oeste 30 Oeste 0 -- -- 53
2019-04-10 17:00:00 13.5 13 Oeste 26 Sudoeste 0 -- -- 57
2019-04-10 16:00:00 12.3 15 Oeste 29 Noroeste 0 -- -- 60
2019-04-10 15:00:00 11.3 15 Noroeste 26 Oeste 0 -- -- 66
2019-04-10 14:00:00 10.3 10 Oeste 20 Oeste 0 -- -- 74
2019-04-10 13:00:00 10.3 8 Oeste 17 Oeste 0 -- -- 74
2019-04-10 12:00:00 8.9 9 Oeste 18 Oeste 0 -- -- 90
2019-04-10 11:00:00 8.3 8 Oeste 14 Oeste 0 -- -- 96
2019-04-10 10:00:00 7.4 9 Oeste 18 Noroeste 0 -- -- 99
2019-04-10 09:00:00 7.4 7 Oeste 17 Noroeste 0 -- -- 99
2019-04-10 08:00:00 7.2 8 Noroeste 20 Noroeste 0 -- -- 99
2019-04-10 07:00:00 7.3 6 Oeste 11 Noroeste 0 -- -- 96
2019-04-10 06:00:00 7.3 4 Noroeste 8 Noroeste 0 -- -- 95
2019-04-10 05:00:00 7.7 4 Noroeste 19 Oeste 0 -- -- 92
2019-04-10 04:00:00 8.7 10 Noroeste 20 Oeste 0 -- -- 87
2019-04-10 03:00:00 9.1 13 Noroeste 24 Oeste 0 -- -- 96
2019-04-10 02:00:00 9.5 12 Oeste 29 Oeste 0 -- -- 99
2019-04-10 01:00:00 9.9 19 Oeste 33 Oeste 0 -- -- 99
2019-04-10 00:00:00 10.2 19 Oeste 32 Oeste 0 -- -- 98
2019-04-09 23:00:00 10.3 17 Oeste 31 Oeste 0 -- -- 88
2019-04-09 22:00:00 10.6 18 Oeste 38 Oeste 0 -- -- 82
2019-04-09 21:00:00 10.8 21 Oeste 36 Oeste 0 -- -- 81
2019-04-09 20:00:00 12.1 21 Oeste 39 Noroeste 0 -- -- 61
2019-04-09 19:00:00 13.5 24 Oeste 44 Oeste 0 -- -- 59
2019-04-09 18:00:00 12.9 26 Oeste 44 Oeste 0 -- -- 57
2019-04-09 17:00:00 11.5 22 Oeste 44 Oeste 0 -- -- 74
2019-04-09 16:00:00 12.8 25 Oeste 45 Oeste 0 -- -- 64
2019-04-09 15:00:00 11.5 19 Oeste 36 Noroeste 0 -- -- 63
2019-04-09 14:00:00 12.8 22 Oeste 44 Oeste 0 -- -- 65
2019-04-09 13:00:00 10.5 20 Oeste 35 Oeste 0.7 -- -- 99
2019-04-09 12:00:00 9.6 17 Noroeste 26 Oeste 0 -- -- 89
2019-04-09 11:00:00 9.2 14 Oeste 29 Oeste 0 -- -- 94
2019-04-09 10:00:00 8.9 12 Oeste 21 Noroeste 0 -- -- 98
2019-04-09 09:00:00 7.5 5 Noroeste 13 Norte 0 -- -- 99
2019-04-09 08:00:00 7 6 Noroeste 13 Noroeste 0 -- -- 99
2019-04-09 07:00:00 6.8 8 Noroeste 21 Oeste 0 -- -- 99
2019-04-09 06:00:00 8 12 Oeste 22 Oeste 0 -- -- 99
2019-04-09 05:00:00 8.6 10 Oeste 19 Oeste 0 -- -- 99
2019-04-09 04:00:00 8.9 13 Oeste 20 Oeste 0 -- -- 99
2019-04-09 03:00:00 9.5 14 Oeste 26 Oeste 0 -- -- 99
2019-04-09 02:00:00 9.7 15 Oeste 30 Oeste 0 -- -- 99
2019-04-09 01:00:00 9.9 18 Oeste 38 Oeste 0.9 -- -- 99
2019-04-09 00:00:00 10.1 23 Oeste 36 Oeste 0 -- -- 99
2019-04-08 23:00:00 10.7 24 Oeste 42 Oeste 0 -- -- 99
2019-04-08 22:00:00 10.8 22 Oeste 43 Oeste 0.1 -- -- 99
2019-04-08 21:00:00 11 14 Oeste 37 Noroeste 2.2 -- -- 99
2019-04-08 20:00:00 11.4 23 Oeste 42 Oeste 2.2 -- -- 99
2019-04-08 19:00:00 11.9 25 Oeste 51 Oeste 0.6 -- -- 99
2019-04-08 18:00:00 12.4 20 Oeste 41 Oeste 0.4 -- -- 99
2019-04-08 17:00:00 12.1 25 Oeste 48 Oeste 1.8 -- -- 99
2019-04-08 16:00:00 12.2 16 Oeste 42 Oeste 1.8 -- -- 99
2019-04-08 15:00:00 12.1 18 Oeste 39 Oeste 1.4 -- -- 99
2019-04-08 14:00:00 11.9 24 Oeste 41 Oeste 0.1 -- -- 99
2019-04-08 13:00:00 11.6 19 Oeste 46 Oeste 1.9 -- -- 99
2019-04-08 12:00:00 11.9 14 Oeste 33 Oeste 0.4 -- -- 99
2019-04-08 11:00:00 11.4 18 Oeste 28 Noroeste 0 -- -- 99
2019-04-08 10:00:00 10.9 17 Oeste 32 Oeste 0.3 -- -- 99
2019-04-08 09:00:00 10.6 19 Oeste 38 Oeste 0 -- -- 99
2019-04-08 08:00:00 10.5 23 Oeste 46 Oeste 0 -- -- 99
2019-04-08 07:00:00 10.8 22 Oeste 46 Oeste 0.1 -- -- 99
2019-04-08 06:00:00 10.9 22 Oeste 44 Oeste 0 -- -- 99
2019-04-08 05:00:00 10.8 24 Oeste 44 Oeste 0.1 -- -- 99
2019-04-08 04:00:00 10.9 23 Oeste 41 Oeste 0.5 -- -- 99
2019-04-08 03:00:00 10.7 21 Oeste 41 Sudoeste 0.4 -- -- 99
2019-04-08 02:00:00 11 19 Oeste 39 Oeste 0.3 -- -- 99
2019-04-08 01:00:00 11.4 21 Oeste 39 Oeste 0 -- -- 99
2019-04-08 00:00:00 11.6 25 Oeste 43 Oeste 0.2 -- -- 99
2019-04-07 23:00:00 12 26 Oeste 49 Oeste 2.6 -- -- 99
2019-04-07 22:00:00 11.7 17 Oeste 35 Oeste 5.1 -- -- 99
2019-04-07 21:00:00 11.4 22 Oeste 41 Oeste 0.9 -- -- 99
2019-04-07 20:00:00 10.9 14 Oeste 31 Oeste 0.2 -- -- 99
2019-04-07 19:00:00 10.5 21 Oeste 34 Oeste 0.1 -- -- 99
2019-04-07 18:00:00 10.1 18 Oeste 31 Oeste 0.2 -- -- 99
2019-04-07 17:00:00 9.9 17 Oeste 37 Oeste 0.6 -- -- 99
2019-04-07 16:00:00 11 14 Oeste 34 Oeste 0 -- -- 79
2019-04-07 15:00:00 10.9 14 Oeste 29 Oeste 0 -- -- 75
2019-04-07 14:00:00 11.5 15 Oeste 32 Noroeste 0 -- -- 69
2019-04-07 13:00:00 10.5 20 Oeste 31 Oeste 0 -- -- 70
2019-04-07 12:00:00 10.4 18 Oeste 31 Oeste 0 -- -- 80
2019-04-07 11:00:00 9.4 19 Oeste 36 Oeste 0 -- -- 90
2019-04-07 10:00:00 8 19 Oeste 32 Oeste 0 -- -- 99
2019-04-07 09:00:00 7.1 15 Oeste 33 Oeste 0 -- -- 99
2019-04-07 08:00:00 7.2 17 Oeste 32 Oeste 0.1 -- -- 99
2019-04-07 07:00:00 7.1 20 Oeste 37 Oeste 0 -- -- 99
2019-04-07 06:00:00 7.1 24 Oeste 42 Oeste 0 -- -- 99
2019-04-07 05:00:00 7 24 Oeste 47 Oeste 0 -- -- 99
2019-04-07 04:00:00 7 22 Oeste 42 Oeste 0 -- -- 99
2019-04-07 03:00:00 7 24 Oeste 37 Oeste 0 -- -- 99
2019-04-07 02:00:00 7.3 20 Oeste 39 Oeste 0 -- -- 99
2019-04-07 01:00:00 7.6 23 Oeste 41 Oeste 0.1 -- -- 99
2019-04-07 00:00:00 6.2 14 Oeste 37 Noroeste 1.7 -- -- 99
2019-04-06 23:00:00 7.3 13 Oeste 25 Oeste 0 -- -- 99
2019-04-06 22:00:00 5.9 10 Oeste 36 Oeste 1.8 -- -- 99
2019-04-06 21:00:00 7.5 11 Oeste 25 Oeste 0.2 -- -- 99
2019-04-06 20:00:00 6.9 17 Oeste 46 Oeste 1 -- -- 99
2019-04-06 19:00:00 8.2 24 Oeste 49 Oeste 0 -- -- 90
2019-04-06 18:00:00 8.2 28 Oeste 46 Oeste 0.1 -- -- 82
2019-04-06 17:00:00 7.3 21 Oeste 34 Oeste 0.3 -- -- 97
2019-04-06 16:00:00 5.2 23 Noroeste 55 Noroeste 1.1 -- -- 97
2019-04-06 15:00:00 9.9 28 Oeste 45 Oeste 0 -- -- 70
2019-04-06 14:00:00 9.3 24 Oeste 37 Oeste 0 -- -- 80
2019-04-06 13:00:00 8.2 21 Oeste 35 Oeste 0 -- -- 99
2019-04-06 12:00:00 7.2 20 Oeste 33 Oeste 0.9 -- -- 99
2019-04-06 11:00:00 6.6 19 Oeste 35 Oeste 0.4 -- -- 99
2019-04-06 10:00:00 6.8 19 Oeste 33 Oeste 0 -- -- 99
2019-04-06 09:00:00 6.4 18 Oeste 33 Oeste 0 -- -- 99
2019-04-06 08:00:00 5.9 21 Oeste 36 Oeste 0 -- -- 99
2019-04-06 07:00:00 5.8 22 Oeste 36 Oeste 0 -- -- 99
2019-04-06 06:00:00 5.9 21 Oeste 42 Oeste 0 -- -- 99
2019-04-06 05:00:00 5.8 23 Oeste 46 Oeste 0 -- -- 99
2019-04-06 04:00:00 5.8 22 Oeste 37 Oeste 0 -- -- 99
2019-04-06 03:00:00 5.8 20 Oeste 33 Oeste 0 -- -- 99
2019-04-06 02:00:00 5.9 23 Oeste 41 Oeste 0.1 -- -- 99
2019-04-06 01:00:00 6.1 22 Oeste 39 Oeste 0 -- -- 99
2019-04-06 00:00:00 6.2 24 Oeste 42 Noroeste 0.3 -- -- 99
2019-04-05 23:00:00 6.2 22 Oeste 42 Oeste 0.2 -- -- 98
2019-04-05 22:00:00 7.6 23 Oeste 41 Oeste 0 -- -- 82
2019-04-05 21:00:00 7.7 26 Oeste 52 Oeste 0 -- -- 74
2019-04-05 20:00:00 9.4 24 Oeste 44 Oeste 0 -- -- 56
2019-04-05 19:00:00 9.9 25 Oeste 50 Oeste 0 -- -- 57
2019-04-05 18:00:00 9.9 30 Oeste 51 Oeste 0 -- -- 70
2019-04-05 17:00:00 7.4 31 Oeste 53 Oeste 0.1 -- -- 72
2019-04-05 16:00:00 9.2 24 Oeste 40 Oeste 0 -- -- 76
2019-04-05 15:00:00 8.4 24 Oeste 44 Oeste 0.3 -- -- 94
2019-04-05 14:00:00 8.8 22 Oeste 40 Sudoeste 0.8 -- -- 89
2019-04-05 13:00:00 7.8 24 Oeste 53 Oeste 0.8 -- -- 94
2019-04-05 12:00:00 8.5 27 Oeste 59 Oeste 1.3 -- -- 88
2019-04-05 11:00:00 7.5 28 Oeste 47 Oeste 3.1 -- -- 91
2019-04-05 10:00:00 6.4 15 Oeste 48 Oeste 4.1 -- -- 95
2019-04-05 09:00:00 8.4 22 Sudoeste 48 Sudoeste 0.5 -- -- 86
2019-04-05 08:00:00 7.9 17 Oeste 38 Sudoeste 0.5 -- -- 86
2019-04-05 07:00:00 8.3 21 Oeste 38 Oeste 0 -- -- 77
2019-04-05 06:00:00 8.4 15 Oeste 33 Oeste 0 -- -- 67
2019-04-05 05:00:00 8.3 21 Oeste 43 Oeste 0 -- -- 65
2019-04-05 04:00:00 8.4 24 Oeste 42 Oeste 0 -- -- 64
2019-04-05 03:00:00 8.4 24 Oeste 47 Oeste 0 -- -- 65
2019-04-05 02:00:00 8.9 19 Oeste 37 Oeste 0 -- -- 52
2019-04-05 01:00:00 7.9 14 Oeste 31 Oeste 0 -- -- 51
2019-04-05 00:00:00 9.1 18 Oeste 34 Oeste 0 -- -- 45
2019-04-04 23:00:00 9.9 15 Oeste 36 Oeste 0 -- -- 41
2019-04-04 22:00:00 10.8 15 Oeste 34 Oeste 0 -- -- 42
2019-04-04 21:00:00 11.7 19 Oeste 32 Noroeste 0 -- -- 41
2019-04-04 20:00:00 13.8 20 Oeste 38 Oeste 0 -- -- 32
2019-04-04 19:00:00 14.7 20 Oeste 38 Oeste 0 -- -- 32
2019-04-04 18:00:00 15.1 22 Oeste 40 Noroeste 0 -- -- 32
2019-04-04 17:00:00 14.8 21 Oeste 38 Oeste 0 -- -- 34
2019-04-04 16:00:00 14.4 18 Oeste 37 Oeste 0 -- -- 36
2019-04-04 15:00:00 13.4 20 Oeste 36 Oeste 0 -- -- 38
2019-04-04 14:00:00 13.5 18 Oeste 35 Oeste 0 -- -- 38
2019-04-04 13:00:00 12.1 17 Oeste 27 Oeste 0 -- -- 42
2019-04-04 12:00:00 11.1 13 Oeste 24 Noroeste 0 -- -- 46
2019-04-04 11:00:00 9.5 8 Oeste 13 Oeste 0 -- -- 49
2019-04-04 10:00:00 8.2 3 Noroeste 6 Noroeste 0 -- -- 49
2019-04-04 09:00:00 7 2 Sudeste 5 Sudeste 0 -- -- 48
2019-04-04 08:00:00 6.9 4 Norte 9 Norte 0 -- -- 47
2019-04-04 07:00:00 7.8 0 Calma 9 Norte 0 -- -- 47
2019-04-04 06:00:00 8.1 8 Norte 13 Nordeste 0 -- -- 46
2019-04-04 05:00:00 8.8 5 Norte 11 Nordeste 0 -- -- 45
2019-04-04 04:00:00 9.6 2 Norte 9 Este 0 -- -- 44
2019-04-04 03:00:00 9 5 Este 9 Sudeste 0 -- -- 47
2019-04-04 02:00:00 9.5 7 Este 12 Norte 0 -- -- 49
2019-04-04 01:00:00 11.3 6 Norte 10 Norte 0 -- -- 51
2019-04-04 00:00:00 12.1 4 Norte 15 Noroeste 0 -- -- 49
2019-04-03 23:00:00 12.9 9 Noroeste 32 Oeste 0 -- -- 46
2019-04-03 22:00:00 14.2 19 Oeste 29 Oeste 0 -- -- 44
2019-04-03 21:00:00 14.6 15 Oeste 39 Oeste 0 -- -- 42
2019-04-03 20:00:00 16.7 21 Oeste 37 Oeste 0 -- -- 39
2019-04-03 19:00:00 17.4 24 Oeste 41 Noroeste 0 -- -- 39
2019-04-03 18:00:00 17.8 26 Noroeste 44 Oeste 0 -- -- 38
2019-04-03 17:00:00 18.4 24 Noroeste 41 Noroeste 0 -- -- 37
2019-04-03 16:00:00 18.3 22 Noroeste 39 Oeste 0 -- -- 39
2019-04-03 15:00:00 17.3 18 Oeste 31 Oeste 0 -- -- 47
2019-04-03 14:00:00 17.7 13 Oeste 27 Oeste 0 -- -- 48
2019-04-03 13:00:00 17 8 Oeste 17 Oeste 0 -- -- 58
2019-04-03 12:00:00 16.2 8 Noroeste 15 Noroeste 0 -- -- 65
2019-04-03 11:00:00 14.9 4 Oeste 9 Oeste 0 -- -- 68
2019-04-03 10:00:00 -- -- -- -- -- 0 -- -- --
2019-04-03 09:00:00 11.6 4 Norte 9 Noroeste 0 -- -- 78
2019-04-03 08:00:00 12.2 3 Oeste 12 Noroeste 0 -- -- 76
2019-04-03 07:00:00 12.2 8 Noroeste 15 Noroeste 0 -- -- 76
2019-04-03 06:00:00 12.3 5 Noroeste 17 Noroeste 0 -- -- 76
2019-04-03 05:00:00 12.4 8 Noroeste 15 Noroeste 0 -- -- 71
2019-04-03 04:00:00 12.7 6 Noroeste 12 Oeste 0 -- -- 64
2019-04-03 03:00:00 13 3 Noroeste 10 Norte 0 -- -- 62
2019-04-03 02:00:00 13.4 3 Noroeste 7 Noroeste 0 -- -- 60
2019-04-03 01:00:00 13.3 0 Calma 6 Noroeste 0 -- -- 57
2019-04-03 00:00:00 13.7 4 Noroeste 7 Norte 0 -- -- 55
2019-04-02 23:00:00 13.6 4 Noroeste 8 Noroeste 0 -- -- 60
2019-04-02 22:00:00 14.1 5 Noroeste 10 Oeste 0 -- -- 60
2019-04-02 21:00:00 14.7 3 Oeste 12 Noroeste 0 -- -- 55
2019-04-02 20:00:00 15.9 7 Oeste 19 Oeste 0 -- -- 50
2019-04-02 19:00:00 17.9 10 Oeste 19 Oeste 0 -- -- 46
2019-04-02 18:00:00 17 9 Oeste 18 Noroeste 0 -- -- 51
2019-04-02 17:00:00 17 8 Noroeste 18 Oeste 0 -- -- 53
2019-04-02 16:00:00 17.8 4 Noroeste 20 Noroeste 0 -- -- 55
2019-04-02 15:00:00 15.3 7 Noroeste 14 Noroeste 0 -- -- 61
2019-04-02 14:00:00 16.2 6 Oeste 30 Oeste 0 -- -- 60
2019-04-02 13:00:00 15.8 4 Sudeste -- -- -- -- -- 56
2019-04-02 12:00:00 -- -- -- -- -- -- -- -- --
2019-04-02 11:00:00 -- -- -- -- -- -- -- -- --
2019-04-02 10:00:00 -- -- -- -- -- -- -- -- --
2019-04-02 09:00:00 -- -- -- -- -- -- -- -- --
2019-04-02 08:00:00 -- -- -- -- -- -- -- -- --
2019-04-02 07:00:00 -- -- -- -- -- -- -- -- --
2019-04-02 06:00:00 -- -- -- -- -- -- -- -- --
2019-04-02 05:00:00 -- -- -- -- -- -- -- -- --
2019-04-02 04:00:00 -- -- -- -- -- -- -- -- --
2019-04-02 03:00:00 -- -- -- -- -- -- -- -- --
2019-04-02 02:00:00 -- -- -- -- -- -- -- -- --
2019-04-02 01:00:00 -- -- -- -- -- -- -- -- --
2019-04-02 00:00:00 -- -- -- -- -- -- -- -- --
2019-04-01 23:00:00 -- -- -- -- -- -- -- -- --
2019-04-01 22:00:00 -- -- -- -- -- -- -- -- --
2019-04-01 21:00:00 -- -- -- -- -- -- -- -- --
2019-04-01 20:00:00 -- -- -- -- -- -- -- -- --
2019-04-01 19:00:00 -- -- -- -- -- -- -- -- --
2019-04-01 18:00:00 -- -- -- -- -- -- -- -- --
2019-04-01 17:00:00 -- -- -- -- -- -- -- -- --
2019-04-01 16:00:00 -- -- -- -- -- -- -- -- --
2019-04-01 15:00:00 -- -- -- -- -- -- -- -- --
2019-04-01 14:00:00 -- -- -- -- -- -- -- -- --
2019-04-01 13:00:00 -- -- -- -- -- -- -- -- --
2019-04-01 12:00:00 -- -- -- -- -- -- -- -- --
2019-04-01 11:00:00 -- -- -- -- -- -- -- -- --
2019-04-01 10:00:00 -- -- -- -- -- -- -- -- --
2019-04-01 09:00:00 -- -- -- -- -- -- -- -- --
2019-04-01 08:00:00 -- -- -- -- -- -- -- -- --
2019-04-01 07:00:00 -- -- -- -- -- -- -- -- --
2019-04-01 06:00:00 -- -- -- -- -- -- -- -- --
2019-04-01 05:00:00 -- -- -- -- -- -- -- -- --
2019-04-01 04:00:00 -- -- -- -- -- -- -- -- --
2019-04-01 03:00:00 -- -- -- -- -- -- -- -- --
2019-04-01 02:00:00 -- -- -- -- -- -- -- -- --
2019-04-01 01:00:00 -- -- -- -- -- -- -- -- --
2019-04-01 00:00:00 -- -- -- -- -- -- -- -- --
2019-03-31 23:00:00 -- -- -- -- -- -- -- -- --
2019-03-31 22:00:00 -- -- -- -- -- -- -- -- --
2019-03-31 21:00:00 -- -- -- -- -- -- -- -- --
2019-03-31 20:00:00 -- -- -- -- -- -- -- -- --
2019-03-31 19:00:00 -- -- -- -- -- -- -- -- --
2019-03-31 18:00:00 -- -- -- -- -- -- -- -- --
2019-03-31 17:00:00 -- -- -- -- -- -- -- -- --
2019-03-31 16:00:00 -- -- -- -- -- -- -- -- --
2019-03-31 15:00:00 -- -- -- -- -- -- -- -- --
2019-03-31 14:00:00 -- -- -- -- -- -- -- -- --
2019-03-31 13:00:00 -- -- -- -- -- -- -- -- --
2019-03-31 12:00:00 -- -- -- -- -- -- -- -- --
2019-03-31 11:00:00 -- -- -- -- -- -- -- -- --
2019-03-31 10:00:00 -- -- -- -- -- -- -- -- --
2019-03-31 09:00:00 -- -- -- -- -- -- -- -- --
2019-03-31 08:00:00 -- -- -- -- -- -- -- -- --
2019-03-31 07:00:00 -- -- -- -- -- -- -- -- --
2019-03-31 06:00:00 -- -- -- -- -- -- -- -- --
2019-03-31 05:00:00 -- -- -- -- -- -- -- -- --
2019-03-31 03:00:00 -- -- -- -- -- -- -- -- --
2019-03-31 01:00:00 -- -- -- -- -- -- -- -- --
2019-03-31 00:00:00 -- -- -- -- -- -- -- -- --
2019-03-30 23:00:00 -- -- -- -- -- -- -- -- --
2019-03-30 22:00:00 -- -- -- -- -- -- -- -- --
2019-03-30 21:00:00 -- -- -- -- -- -- -- -- --
2019-03-30 20:00:00 -- -- -- -- -- -- -- -- --
2019-03-30 19:00:00 -- -- -- -- -- -- -- -- --
2019-03-30 18:00:00 18 16 Oeste 26 Oeste 0 -- -- 41
2019-03-30 17:00:00 19.9 10 Noroeste 21 Noroeste 0 -- -- 37
2019-03-30 16:00:00 20.4 7 Noroeste 18 Noroeste 0 -- -- 36
2019-03-30 15:00:00 19.9 12 Noroeste 21 Oeste 0 -- -- 37
2019-03-30 14:00:00 19.2 8 Noroeste 18 Oeste 0 -- -- 37
2019-03-30 13:00:00 17.9 12 Oeste 18 Oeste 0 -- -- 40
2019-03-30 12:00:00 16.9 11 Oeste 20 Noroeste 0 -- -- 43
2019-03-30 11:00:00 16.8 5 Sudeste 18 Sudeste 0 -- -- 43
2019-03-30 10:00:00 14.2 4 Sudeste 15 Sudeste 0 -- -- 50
2019-03-30 09:00:00 11.5 3 Noroeste 6 Noroeste 0 -- -- 58
2019-03-30 08:00:00 9.7 5 Norte 9 Norte 0 -- -- 60
2019-03-30 07:00:00 9.3 3 Nordeste 18 Sudeste 0 -- -- 60
2019-03-30 06:00:00 10.1 13 Este 20 Este 0 -- -- 58
2019-03-30 05:00:00 10.6 11 Este 26 Este 0 -- -- 58
2019-03-30 04:00:00 11.6 11 Este 37 Sur 0 -- -- 55
2019-03-30 03:00:00 10.6 7 Sudeste 15 Este 0 -- -- 59
2019-03-30 02:00:00 10.1 4 Norte 25 Este 0 -- -- 62
2019-03-30 01:00:00 11.1 3 Noroeste 19 Sudeste 0 -- -- 58
2019-03-30 00:00:00 11 5 Norte 12 Noroeste 0 -- -- 58
2019-03-29 23:00:00 11.7 0 Calma 10 Norte 0 -- -- 53
2019-03-29 22:00:00 12.1 4 Norte 15 Norte 0 -- -- 53
2019-03-29 21:00:00 12.6 5 Noroeste 17 Noroeste 0 -- -- 53
2019-03-29 20:00:00 13.5 10 Noroeste 25 Oeste 0 -- -- 46
2019-03-29 19:00:00 15.8 13 Oeste 25 Oeste 0 -- -- 37
2019-03-29 18:00:00 18.5 10 Oeste 22 Oeste 0 -- -- 32
2019-03-29 17:00:00 19.3 12 Oeste 24 Noroeste 0 -- -- 31
2019-03-29 16:00:00 19.4 6 Oeste 19 Noroeste 0 -- -- 28
2019-03-29 15:00:00 19.5 8 Oeste 19 Oeste 0 -- -- 27
2019-03-29 14:00:00 18.9 2 Sur 23 Oeste 0 -- -- 28
2019-03-29 13:00:00 16.9 8 Noroeste 19 Oeste 0 -- -- 29
2019-03-29 12:00:00 15.4 12 Noroeste 20 Noroeste 0 -- -- 30
2019-03-29 11:00:00 13.5 6 Noroeste 18 Sudeste 0 -- -- 33
2019-03-29 10:00:00 14 6 Nordeste 14 Este 0 -- -- 30
2019-03-29 09:00:00 12.2 9 Este 22 Este 0 -- -- 30
2019-03-29 08:00:00 10.5 7 Este 31 Sudeste 0 -- -- 29
2019-03-29 07:00:00 9.8 4 Este 21 Sudeste 0 -- -- 30
2019-03-29 06:00:00 8.8 2 Este 18 Este 0 -- -- 33
2019-03-29 05:00:00 9.8 4 Este 24 Sudeste 0 -- -- 31
2019-03-29 04:00:00 10.5 14 Este 29 Sudeste 0 -- -- 30
2019-03-29 03:00:00 10.2 15 Sudeste 23 Sudeste 0 -- -- 31
2019-03-29 02:00:00 10.3 15 Este 33 Este 0 -- -- 31
2019-03-29 01:00:00 10.5 17 Este 26 Sudeste 0 -- -- 34
2019-03-29 00:00:00 11 0 Calma 40 Este 0 -- -- 36
2019-03-28 23:00:00 12.9 21 Este 47 Este 0 -- -- 30
2019-03-28 22:00:00 13.6 22 Sudeste 39 Sudeste 0 -- -- 32
2019-03-28 21:00:00 11.5 8 Norte 17 Noroeste 0 -- -- 39
2019-03-28 20:00:00 13 10 Noroeste 25 Oeste 0 -- -- 33
2019-03-28 19:00:00 16.2 17 Noroeste 27 Noroeste 0 -- -- 26
2019-03-28 18:00:00 21 3 Norte 18 Norte 0 -- -- 19
2019-03-28 17:00:00 20.7 6 Nordeste 19 Nordeste 0 -- -- 20
2019-03-28 16:00:00 20.3 0 Calma 27 Sudeste 0 -- -- 20
2019-03-28 15:00:00 19.9 5 Este 26 Sur 0 -- -- 22
2019-03-28 14:00:00 17.6 6 Sudoeste 27 Sur 0 -- -- 24
2019-03-28 13:00:00 16.9 13 Sur 28 Sudeste 0 -- -- 26
2019-03-28 12:00:00 16 14 Sudeste 36 Sudeste 0 -- -- 29
2019-03-28 11:00:00 14.2 4 Sudoeste 18 Sur 0 -- -- 33
2019-03-28 10:00:00 12.2 5 Noroeste 11 Noroeste 0 -- -- 43
2019-03-28 09:00:00 10.1 0 Calma 7 Noroeste 0 -- -- 46
2019-03-28 08:00:00 8.9 4 Sudeste 29 Sudeste 0 -- -- 39
2019-03-28 07:00:00 8.8 17 Sudeste 26 Sudeste 0 -- -- 41
2019-03-28 06:00:00 8 15 Sudeste 23 Sudeste 0 -- -- 69
2019-03-28 05:00:00 8.3 5 Este 20 Este 0 -- -- 67
2019-03-28 04:00:00 8.6 9 Este 21 Este 0 -- -- 63
2019-03-28 03:00:00 9.8 12 Nordeste 24 Este 0 -- -- 52
2019-03-28 02:00:00 10.9 12 Sudeste 23 Este 0 -- -- 50
2019-03-28 01:00:00 9.3 0 Calma 6 Noroeste 0 -- -- 57
2019-03-28 00:00:00 9.6 4 Noroeste 9 Norte 0 -- -- 58
2019-03-27 23:00:00 10.3 4 Norte 12 Norte 0 -- -- 56
2019-03-27 22:00:00 10.8 4 Norte 17 Norte 0 -- -- 53
2019-03-27 21:00:00 11.7 8 Noroeste 20 Noroeste 0 -- -- 48
2019-03-27 20:00:00 13 9 Noroeste 26 Oeste 0 -- -- 41
2019-03-27 19:00:00 16.1 14 Oeste 26 Oeste 0 -- -- 32
2019-03-27 18:00:00 19.6 6 Sudeste 19 Sudeste 0 -- -- 22
2019-03-27 17:00:00 20.3 7 Nordeste 21 Este 0 -- -- 23
2019-03-27 16:00:00 19.8 4 Sudeste 23 Sudeste 0 -- -- 22
2019-03-27 15:00:00 20.1 6 Este 22 Sudeste 0 -- -- 24
2019-03-27 14:00:00 18 6 Sur 26 Sudeste 0 -- -- 25
2019-03-27 13:00:00 17.9 3 Nordeste 20 Sudeste 0 -- -- 26
2019-03-27 12:00:00 16.3 3 Este 21 Norte 0 -- -- 28
2019-03-27 11:00:00 14.7 5 Este 21 Nordeste 0 -- -- 28
2019-03-27 10:00:00 13.6 4 Este 23 Sudeste 0 -- -- 29
2019-03-27 09:00:00 12.3 12 Sudeste 21 Sudeste 0 -- -- 31
2019-03-27 08:00:00 9.8 11 Este 24 Sudeste 0 -- -- 30
2019-03-27 07:00:00 9.8 18 Sudeste 29 Sudeste 0 -- -- 31
2019-03-27 06:00:00 9.8 13 Este 24 Este 0 -- -- 31
2019-03-27 05:00:00 10.9 16 Sudeste 36 Sudeste 0 -- -- 31
2019-03-27 04:00:00 12.9 15 Sudeste 47 Sudeste 0 -- -- 27
2019-03-27 03:00:00 13.3 15 Sudeste 45 Este 0 -- -- 28
2019-03-27 02:00:00 13.7 12 Sudeste 36 Sudeste 0 -- -- 31
2019-03-27 01:00:00 13.9 18 Sudeste 51 Este 0 -- -- 37
2019-03-27 00:00:00 14.9 9 Sudeste 35 Sur 0 -- -- 34